Time;durP1;ratioP1;P1;durP2;ratioP2;P2;SDS_P1;SDS_P2;PMS_P1;PMS_P2;Temp;Humidity;BMP_temperature;BMP_pressure;BME280_temperature;BME280_humidity;BME280_pressure;Samples;Min_cycle;Max_cycle;Signal;HPM_P1;HPM_P2
2021/03/16 00:01:34;;;;;;;41.13;7.35;;;8.30;99.90;;;;;;5015102;28;20053;-89
2021/03/16 00:04:00;;;;;;;19.70;6.68;;;8.30;99.90;;;;;;5015697;28;20053;-88
2021/03/16 00:06:27;;;;;;;31.02;6.32;;;8.30;99.90;;;;;;5015786;28;20053;-89
2021/03/16 00:08:53;;;;;;;28.65;6.32;;;8.30;99.90;;;;;;5016035;28;20049;-89
2021/03/16 00:11:20;;;;;;;18.83;6.22;;;8.30;99.90;;;;;;5015773;28;20054;-89
2021/03/16 00:13:47;;;;;;;21.45;7.25;;;8.30;99.90;;;;;;5015429;28;20118;-89
2021/03/16 00:16:14;;;;;;;25.90;7.10;;;8.30;99.90;;;;;;5015584;28;20053;-89
2021/03/16 00:18:41;;;;;;;21.25;8.45;;;8.40;99.90;;;;;;5014694;28;20068;-90
2021/03/16 00:21:07;;;;;;;27.27;6.72;;;8.30;99.90;;;;;;5015713;28;20382;-89
2021/03/16 00:23:34;;;;;;;34.92;7.38;;;8.40;99.90;;;;;;5015686;28;20053;-89
2021/03/16 00:26:01;;;;;;;26.70;6.22;;;8.30;99.90;;;;;;5015101;28;20111;-88
2021/03/16 00:28:27;;;;;;;27.05;6.85;;;8.30;99.90;;;;;;5021528;28;20057;-87
2021/03/16 00:30:54;;;;;;;31.65;7.72;;;8.30;99.90;;;;;;5017074;28;20053;-88
2021/03/16 00:33:21;;;;;;;20.05;5.93;;;8.30;99.90;;;;;;5015546;28;20077;-88
2021/03/16 00:35:49;;;;;;;29.67;7.53;;;8.30;99.90;;;;;;5015654;28;20049;-89
2021/03/16 00:38:15;;;;;;;24.63;7.40;;;8.30;99.90;;;;;;5015206;28;20058;-88
2021/03/16 00:40:42;;;;;;;27.83;8.88;;;8.20;99.90;;;;;;5015142;28;20056;-88
2021/03/16 00:43:09;;;;;;;28.70;8.63;;;8.20;99.90;;;;;;5015219;28;20136;-88
2021/03/16 00:45:35;;;;;;;22.10;8.77;;;8.20;99.90;;;;;;5014855;28;20050;-88
2021/03/16 00:48:02;;;;;;;33.15;7.80;;;8.20;99.90;;;;;;5015263;28;20061;-88
2021/03/16 00:50:46;;;;;;;27.98;8.18;;;8.20;99.90;;;;;;5014856;28;20108;-88
2021/03/16 00:53:14;;;;;;;33.40;7.57;;;8.20;99.90;;;;;;5015108;28;20108;-87
2021/03/16 00:55:41;;;;;;;28.70;7.63;;;8.20;99.90;;;;;;5014648;28;20057;-87
2021/03/16 00:58:09;;;;;;;32.17;7.50;;;8.20;99.90;;;;;;5014821;28;20462;-88
2021/03/16 01:00:36;;;;;;;22.23;6.68;;;8.20;99.90;;;;;;5014764;28;20127;-88
2021/03/16 01:03:04;;;;;;;25.05;6.85;;;8.10;99.90;;;;;;5014909;28;20056;-87
2021/03/16 01:05:31;;;;;;;36.85;6.55;;;8.10;99.90;;;;;;5014612;28;20060;-87
2021/03/16 01:07:59;;;;;;;22.30;6.75;;;8.10;99.90;;;;;;5015031;28;20064;-87
2021/03/16 01:10:27;;;;;;;34.35;8.57;;;8.10;99.90;;;;;;5014732;28;20060;-87
2021/03/16 01:12:55;;;;;;;30.90;7.50;;;8.10;99.90;;;;;;5014886;28;20053;-87
2021/03/16 01:15:22;;;;;;;27.23;7.25;;;8.10;99.90;;;;;;5014511;28;20057;-87
2021/03/16 01:17:52;;;;;;;23.83;6.93;;;8.00;99.90;;;;;;5014563;28;20046;-87
2021/03/16 01:20:20;;;;;;;24.50;7.45;;;8.00;99.90;;;;;;5014557;28;20504;-86
2021/03/16 01:22:47;;;;;;;33.03;7.28;;;8.10;99.90;;;;;;5013732;28;20473;-86
2021/03/16 01:25:14;;;;;;;25.40;7.60;;;8.00;99.90;;;;;;5013375;28;20053;-88
2021/03/16 01:27:41;;;;;;;33.35;10.52;;;8.00;99.90;;;;;;5014712;28;20057;-87
2021/03/16 01:30:08;;;;;;;25.92;8.95;;;8.00;99.90;;;;;;5014219;28;20046;-87
2021/03/16 01:32:35;;;;;;;36.58;10.32;;;8.00;99.90;;;;;;5014434;28;20054;-87
2021/03/16 01:35:02;;;;;;;41.55;11.40;;;8.00;99.90;;;;;;5014700;28;20386;-88
2021/03/16 01:37:29;;;;;;;39.50;9.50;;;7.90;99.90;;;;;;5014323;28;20140;-87
2021/03/16 01:39:56;;;;;;;28.25;8.45;;;7.90;99.90;;;;;;5014115;28;20050;-87
2021/03/16 01:42:23;;;;;;;28.05;9.73;;;7.90;99.90;;;;;;5014313;28;20049;-87
2021/03/16 01:44:49;;;;;;;33.05;10.55;;;7.90;99.90;;;;;;5014254;28;20463;-88
2021/03/16 01:47:19;;;;;;;26.45;10.10;;;7.90;99.90;;;;;;5014299;28;20046;-85
2021/03/16 01:49:47;;;;;;;27.30;9.70;;;7.90;99.90;;;;;;5011596;28;20077;-86
2021/03/16 01:52:16;;;;;;;37.55;11.07;;;7.90;99.90;;;;;;5014049;28;20139;-87
2021/03/16 01:54:42;;;;;;;28.92;10.43;;;7.90;99.90;;;;;;5014049;28;20054;-87
2021/03/16 01:57:11;;;;;;;30.77;9.57;;;7.90;99.90;;;;;;4994758;28;20054;-86
2021/03/16 01:59:39;;;;;;;28.27;10.75;;;7.90;99.90;;;;;;4994339;28;20062;-87
2021/03/16 02:02:06;;;;;;;37.15;10.07;;;7.90;99.90;;;;;;4994375;28;20112;-87
2021/03/16 02:04:32;;;;;;;46.75;12.30;;;7.90;99.90;;;;;;4994454;28;20459;-85
2021/03/16 02:07:02;;;;;;;28.00;9.88;;;7.90;99.90;;;;;;4994653;28;20506;-86
2021/03/16 02:09:32;;;;;;;28.80;9.07;;;7.90;99.90;;;;;;4994227;28;20112;-88
2021/03/16 02:12:00;;;;;;;28.45;9.77;;;7.90;99.90;;;;;;4994339;28;20046;-87
2021/03/16 02:14:31;;;;;;;32.20;9.48;;;7.90;99.90;;;;;;4993937;28;20505;-88
2021/03/16 02:17:00;;;;;;;33.08;10.63;;;7.90;99.90;;;;;;4994297;28;20390;-86
2021/03/16 02:19:38;;;;;;;25.95;8.65;;;7.90;99.90;;;;;;4994307;28;20050;-87
2021/03/16 02:22:05;;;;;;;23.55;8.00;;;7.90;99.90;;;;;;4994186;28;20387;-87
2021/03/16 02:24:48;;;;;;;28.05;7.97;;;7.90;99.90;;;;;;4994493;28;20085;-87
2021/03/16 02:27:16;;;;;;;22.23;8.15;;;7.90;99.90;;;;;;4994769;28;20054;-88
2021/03/16 02:29:45;;;;;;;33.95;9.35;;;7.90;99.90;;;;;;4994446;28;20046;-88
2021/03/16 02:32:15;;;;;;;27.25;9.55;;;7.90;99.90;;;;;;4994717;28;20051;-88
2021/03/16 02:34:42;;;;;;;32.55;10.30;;;7.90;99.90;;;;;;4994531;28;20054;-89
2021/03/16 02:37:09;;;;;;;26.33;9.23;;;7.90;99.90;;;;;;4994286;28;20065;-87
2021/03/16 02:39:36;;;;;;;30.30;9.55;;;7.90;99.90;;;;;;4994361;28;20050;-88
2021/03/16 02:42:04;;;;;;;32.00;9.38;;;7.90;99.90;;;;;;4995984;28;20050;-87
2021/03/16 02:44:31;;;;;;;27.15;9.18;;;7.90;99.90;;;;;;4997932;28;20050;-87
2021/03/16 02:46:59;;;;;;;31.38;9.70;;;7.90;99.90;;;;;;4997966;28;20057;-87
2021/03/16 02:49:25;;;;;;;30.83;9.43;;;7.90;99.90;;;;;;4997786;28;20046;-87
2021/03/16 02:51:53;;;;;;;31.05;9.10;;;7.90;99.90;;;;;;4997566;28;20064;-88
2021/03/16 02:54:19;;;;;;;25.77;8.57;;;7.90;99.90;;;;;;4997694;28;20142;-87
2021/03/16 02:56:46;;;;;;;30.00;8.30;;;7.90;99.90;;;;;;5013806;28;20054;-86
2021/03/16 02:59:13;;;;;;;26.75;9.35;;;7.90;99.90;;;;;;5016995;28;20084;-88
2021/03/16 03:01:39;;;;;;;32.72;9.90;;;7.90;99.90;;;;;;5017217;28;20386;-87
2021/03/16 03:04:08;;;;;;;25.88;8.90;;;7.90;99.90;;;;;;5017402;28;20049;-88
2021/03/16 03:06:35;;;;;;;29.27;9.35;;;7.90;99.90;;;;;;5016988;28;20057;-88
2021/03/16 03:09:02;;;;;;;24.42;9.70;;;8.00;99.90;;;;;;5017001;28;20061;-88
2021/03/16 03:11:31;;;;;;;27.88;9.82;;;7.90;99.90;;;;;;5017206;28;20057;-88
2021/03/16 03:13:58;;;;;;;21.55;9.95;;;8.00;99.90;;;;;;5017103;28;20061;-87
2021/03/16 03:16:25;;;;;;;21.80;11.20;;;8.00;99.90;;;;;;5017054;28;20049;-87
2021/03/16 03:18:52;;;;;;;29.88;10.27;;;8.00;99.90;;;;;;5016562;28;20060;-86
2021/03/16 03:21:22;;;;;;;31.20;11.10;;;8.00;99.90;;;;;;5016522;28;20053;-88
2021/03/16 03:23:49;;;;;;;19.73;10.05;;;8.00;99.90;;;;;;5016744;28;20064;-88
2021/03/16 03:26:19;;;;;;;21.33;9.85;;;8.10;99.90;;;;;;5016568;28;20057;-87
2021/03/16 03:28:46;;;;;;;24.92;10.35;;;8.10;99.90;;;;;;5016806;28;20049;-87
2021/03/16 03:31:13;;;;;;;26.65;9.15;;;8.10;99.90;;;;;;5016189;28;20050;-88
2021/03/16 03:33:39;;;;;;;18.25;7.82;;;8.20;99.90;;;;;;5016664;28;20083;-87
2021/03/16 03:36:07;;;;;;;14.88;7.97;;;8.30;99.90;;;;;;5016634;28;20046;-86
2021/03/16 03:38:34;;;;;;;14.07;7.32;;;8.30;99.90;;;;;;5016700;28;20054;-88
2021/03/16 03:41:01;;;;;;;18.15;7.57;;;8.40;99.90;;;;;;5016261;28;20061;-88
2021/03/16 03:43:28;;;;;;;18.15;7.07;;;8.40;99.90;;;;;;5000282;28;20108;-89
2021/03/16 03:45:54;;;;;;;14.88;6.85;;;8.50;99.90;;;;;;4996875;28;20117;-89
2021/03/16 03:48:21;;;;;;;15.10;6.32;;;8.50;99.90;;;;;;4996570;28;20056;-88
2021/03/16 03:50:50;;;;;;;16.20;7.28;;;8.50;99.90;;;;;;5015276;28;20046;-88
2021/03/16 03:53:17;;;;;;;15.13;7.15;;;8.50;99.90;;;;;;5016034;28;20060;-88
2021/03/16 03:55:44;;;;;;;15.30;6.70;;;8.50;99.90;;;;;;5015732;28;20053;-87
2021/03/16 03:58:11;;;;;;;15.20;7.63;;;8.50;99.90;;;;;;5015966;28;20054;-88
2021/03/16 04:00:38;;;;;;;17.23;7.43;;;8.50;99.90;;;;;;5015724;28;20127;-89
2021/03/16 04:03:05;;;;;;;17.77;7.03;;;8.50;99.90;;;;;;5015915;28;20050;-89
2021/03/16 04:05:32;;;;;;;13.00;6.93;;;8.50;99.90;;;;;;5015642;28;20049;-89
2021/03/16 04:07:59;;;;;;;12.18;6.50;;;8.60;99.90;;;;;;5015774;28;20410;-89
2021/03/16 04:10:26;;;;;;;11.70;5.82;;;8.60;99.90;;;;;;5015861;28;20133;-89
2021/03/16 04:12:53;;;;;;;13.52;6.78;;;8.60;99.90;;;;;;5015555;28;20129;-89
2021/03/16 04:15:20;;;;;;;16.17;6.25;;;8.60;99.90;;;;;;5015612;28;20076;-90
2021/03/16 04:17:47;;;;;;;12.65;5.95;;;8.70;99.90;;;;;;5015679;28;20064;-90
2021/03/16 04:20:14;;;;;;;12.70;7.22;;;8.70;99.90;;;;;;5015700;28;20073;-89
2021/03/16 04:22:42;;;;;;;13.32;6.65;;;8.70;99.90;;;;;;5015516;28;20417;-88
2021/03/16 04:25:10;;;;;;;14.57;7.70;;;8.70;99.90;;;;;;5015309;28;20068;-89
2021/03/16 04:27:37;;;;;;;19.25;7.63;;;8.70;99.90;;;;;;5015457;28;20052;-90
2021/03/16 04:30:06;;;;;;;23.25;9.27;;;8.70;99.90;;;;;;5015352;28;20054;-89
2021/03/16 04:32:32;;;;;;;22.08;9.60;;;8.80;99.90;;;;;;5015557;28;20049;-89
2021/03/16 04:34:59;;;;;;;28.50;10.52;;;8.80;99.90;;;;;;5015413;28;20050;-89
2021/03/16 04:37:25;;;;;;;29.77;11.95;;;8.80;99.90;;;;;;5015274;28;20054;-89
2021/03/16 04:39:52;;;;;;;29.10;12.25;;;8.80;99.90;;;;;;5015368;28;20525;-89
2021/03/16 04:42:19;;;;;;;29.70;13.38;;;8.80;99.90;;;;;;5015287;28;20050;-90
2021/03/16 04:44:45;;;;;;;27.88;12.45;;;8.80;99.90;;;;;;5015025;28;20390;-90
2021/03/16 04:47:13;;;;;;;31.60;13.38;;;8.80;99.90;;;;;;5014876;28;20053;-90
2021/03/16 04:49:39;;;;;;;36.85;13.90;;;8.80;99.90;;;;;;5015170;28;20107;-89
2021/03/16 04:52:06;;;;;;;29.40;13.43;;;8.80;99.90;;;;;;5015148;28;20136;-89
2021/03/16 04:54:32;;;;;;;36.15;13.38;;;8.80;99.90;;;;;;5014869;28;20049;-89
2021/03/16 04:56:59;;;;;;;35.30;14.27;;;8.80;99.90;;;;;;5014383;28;20148;-90
2021/03/16 04:59:26;;;;;;;30.42;13.73;;;8.80;99.90;;;;;;5014973;28;20050;-88
2021/03/16 05:01:52;;;;;;;38.55;15.43;;;8.80;99.90;;;;;;5014854;28;20050;-89
2021/03/16 05:04:20;;;;;;;33.05;14.88;;;8.80;99.90;;;;;;5014259;28;20057;-89
2021/03/16 05:06:46;;;;;;;29.30;12.93;;;8.80;99.90;;;;;;5015051;28;20049;-88
2021/03/16 05:09:13;;;;;;;31.70;13.02;;;8.80;99.90;;;;;;5014833;28;20058;-89
2021/03/16 05:11:39;;;;;;;31.85;14.00;;;8.80;99.90;;;;;;5014548;28;20050;-88
2021/03/16 05:14:06;;;;;;;31.52;14.00;;;8.70;99.90;;;;;;5014973;28;20050;-88
2021/03/16 05:16:33;;;;;;;36.28;14.48;;;8.70;99.90;;;;;;5014730;28;20076;-89
2021/03/16 05:19:01;;;;;;;32.65;13.70;;;8.70;99.90;;;;;;5014379;28;20042;-89
2021/03/16 05:21:28;;;;;;;27.30;12.65;;;8.70;99.90;;;;;;5014803;28;20054;-88
2021/03/16 05:23:55;;;;;;;28.63;12.70;;;8.70;99.90;;;;;;5014536;28;20064;-89
2021/03/16 05:26:22;;;;;;;24.45;12.45;;;8.70;99.90;;;;;;5014647;28;20378;-89
2021/03/16 05:28:48;;;;;;;26.35;11.95;;;8.70;99.90;;;;;;5014714;28;20049;-89
2021/03/16 05:31:15;;;;;;;27.63;11.80;;;8.70;99.90;;;;;;5014465;28;20054;-88
2021/03/16 05:33:42;;;;;;;32.13;11.95;;;8.70;99.90;;;;;;5014351;28;20064;-89
2021/03/16 05:36:08;;;;;;;24.42;10.32;;;8.70;99.90;;;;;;5014604;28;20394;-88
2021/03/16 05:38:36;;;;;;;25.48;11.25;;;8.80;99.90;;;;;;5014201;28;20058;-88
2021/03/16 05:41:02;;;;;;;21.50;10.43;;;8.70;99.90;;;;;;5014203;28;20478;-88
2021/03/16 05:43:29;;;;;;;30.30;10.15;;;8.70;99.90;;;;;;5014367;28;20068;-88
2021/03/16 05:45:56;;;;;;;21.50;9.13;;;8.70;99.90;;;;;;5014178;28;20056;-88
2021/03/16 05:48:23;;;;;;;23.77;10.77;;;8.70;99.90;;;;;;5014705;28;20120;-88
2021/03/16 05:50:49;;;;;;;22.95;8.77;;;8.70;99.90;;;;;;5013848;28;20046;-88
2021/03/16 05:53:16;;;;;;;19.70;9.68;;;8.80;99.90;;;;;;5014039;28;20512;-87
2021/03/16 05:55:43;;;;;;;23.98;8.88;;;8.80;99.90;;;;;;5014168;28;20128;-88
2021/03/16 05:58:10;;;;;;;26.33;9.93;;;8.80;99.90;;;;;;5014191;28;20115;-88
2021/03/16 06:00:36;;;;;;;15.93;8.15;;;8.80;99.90;;;;;;5014319;28;20429;-88
2021/03/16 06:03:03;;;;;;;19.88;8.68;;;8.80;99.90;;;;;;5014236;28;20055;-87
2021/03/16 06:05:30;;;;;;;21.42;9.20;;;8.80;99.90;;;;;;5013862;28;20397;-88
2021/03/16 06:07:56;;;;;;;21.55;9.18;;;8.70;99.90;;;;;;5013860;28;20344;-88
2021/03/16 06:10:23;;;;;;;22.15;8.70;;;8.70;99.90;;;;;;5014401;28;20107;-87
2021/03/16 06:12:51;;;;;;;25.10;8.95;;;8.70;99.90;;;;;;5013772;28;20466;-87
2021/03/16 06:15:19;;;;;;;20.10;9.75;;;8.70;99.90;;;;;;5013950;28;20056;-87
2021/03/16 06:17:47;;;;;;;22.52;9.00;;;8.70;99.90;;;;;;5017077;28;20054;-88
2021/03/16 06:20:24;;;;;;;21.70;10.13;;;8.70;99.90;;;;;;5017278;28;20390;-87
2021/03/16 06:23:01;;;;;;;27.38;9.95;;;8.80;99.90;;;;;;5017546;28;20085;-87
2021/03/16 06:25:30;;;;;;;19.13;10.02;;;8.70;99.90;;;;;;5017564;28;20053;-87
2021/03/16 06:28:01;;;;;;;19.77;8.95;;;8.70;99.90;;;;;;5017355;28;20494;-88
2021/03/16 06:30:28;;;;;;;24.15;9.45;;;8.70;99.90;;;;;;5017342;28;20058;-87
2021/03/16 06:32:55;;;;;;;21.15;9.80;;;8.70;99.90;;;;;;5017996;28;20062;-87
2021/03/16 06:35:22;;;;;;;27.25;9.60;;;8.80;99.90;;;;;;5017688;28;20060;-88
2021/03/16 06:38:02;;;;;;;23.75;9.13;;;8.70;99.90;;;;;;5017408;28;20057;-86
2021/03/16 06:40:29;;;;;;;16.83;9.10;;;8.70;99.90;;;;;;5017258;28;20042;-88
2021/03/16 06:43:05;;;;;;;26.17;9.27;;;8.70;99.90;;;;;;5016964;28;20653;-88
2021/03/16 06:45:32;;;;;;;20.35;9.48;;;8.80;99.90;;;;;;5017554;28;20054;-88
2021/03/16 06:47:59;;;;;;;20.98;9.32;;;8.80;99.90;;;;;;5017148;28;20312;-89
2021/03/16 06:50:29;;;;;;;20.38;9.48;;;8.80;99.90;;;;;;5017165;28;20049;-88
2021/03/16 06:52:57;;;;;;;21.02;8.82;;;8.80;99.90;;;;;;5017255;28;20380;-88
2021/03/16 06:55:23;;;;;;;20.92;9.25;;;8.80;99.90;;;;;;5017171;28;20418;-89
2021/03/16 06:57:50;;;;;;;19.33;9.02;;;8.80;99.90;;;;;;5016725;28;20049;-89
2021/03/16 07:00:19;;;;;;;24.20;9.38;;;8.80;99.90;;;;;;5017212;28;20046;-89
2021/03/16 07:02:45;;;;;;;18.38;9.43;;;8.80;99.90;;;;;;5016780;28;20049;-88
2021/03/16 07:05:13;;;;;;;19.70;8.27;;;8.80;99.90;;;;;;5017055;28;20402;-89
2021/03/16 07:07:39;;;;;;;16.55;8.25;;;8.80;99.90;;;;;;5016694;28;20052;-89
2021/03/16 07:10:07;;;;;;;28.55;9.32;;;8.80;99.90;;;;;;5017037;28;20108;-88
2021/03/16 07:12:35;;;;;;;18.17;8.93;;;8.80;99.90;;;;;;5016580;28;20458;-88
2021/03/16 07:15:04;;;;;;;16.88;7.63;;;8.80;99.90;;;;;;5017043;28;20138;-89
2021/03/16 07:17:32;;;;;;;17.75;7.60;;;8.80;99.90;;;;;;5016677;28;20053;-89
2021/03/16 07:20:02;;;;;;;26.00;7.60;;;8.80;99.90;;;;;;5016274;28;20061;-88
2021/03/16 07:22:29;;;;;;;12.35;6.47;;;8.80;99.90;;;;;;5018046;28;20054;-93
2021/03/16 07:24:57;;;;;;;18.92;6.57;;;8.80;99.90;;;;;;5017618;28;20064;-92
2021/03/16 07:27:25;;;;;;;15.63;6.78;;;8.90;99.90;;;;;;5017002;28;20057;-93
2021/03/16 07:29:53;;;;;;;15.38;6.47;;;8.90;99.90;;;;;;5017419;28;20050;-92
2021/03/16 07:32:21;;;;;;;17.50;7.25;;;8.90;99.90;;;;;;5017459;28;20064;-92
2021/03/16 07:34:50;;;;;;;17.23;6.25;;;8.90;99.90;;;;;;5017323;28;20068;-92
2021/03/16 07:37:17;;;;;;;11.80;6.50;;;8.90;99.90;;;;;;5017297;28;20355;-92
2021/03/16 07:39:44;;;;;;;11.40;6.25;;;8.90;99.90;;;;;;5017229;28;20050;-91
2021/03/16 07:42:11;;;;;;;12.02;6.22;;;8.90;99.90;;;;;;5016798;28;20064;-91
2021/03/16 07:44:42;;;;;;;11.90;6.03;;;8.90;99.90;;;;;;5016637;28;20053;-90
2021/03/16 07:47:08;;;;;;;10.13;5.60;;;9.00;99.90;;;;;;5016575;28;20548;-91
2021/03/16 07:49:35;;;;;;;18.33;6.10;;;9.00;99.90;;;;;;5015704;28;20378;-90
2021/03/16 07:52:14;;;;;;;14.73;5.20;;;9.00;99.90;;;;;;5016188;28;20058;-90
2021/03/16 07:54:41;;;;;;;10.95;5.22;;;9.00;99.90;;;;;;5016181;28;20046;-90
2021/03/16 07:57:08;;;;;;;12.68;4.55;;;9.00;99.90;;;;;;5015868;28;20054;-90
2021/03/16 07:59:35;;;;;;;10.48;4.25;;;9.00;99.90;;;;;;5016016;28;20450;-89
2021/03/16 08:02:02;;;;;;;7.78;3.53;;;9.00;99.90;;;;;;5016319;28;20064;-90
2021/03/16 08:04:35;;;;;;;8.35;4.20;;;9.00;99.90;;;;;;5016025;28;20107;-90
2021/03/16 08:07:03;;;;;;;6.32;3.10;;;9.00;99.90;;;;;;5016333;28;20056;-89
2021/03/16 08:09:30;;;;;;;7.32;3.33;;;9.10;99.90;;;;;;5016191;28;20053;-90
2021/03/16 08:11:57;;;;;;;7.43;3.13;;;9.10;99.90;;;;;;5014234;28;20377;-89
2021/03/16 08:14:27;;;;;;;6.78;2.78;;;9.10;99.90;;;;;;4996556;28;20049;-89
2021/03/16 08:16:53;;;;;;;7.03;2.72;;;9.10;99.90;;;;;;4996055;28;20046;-90
2021/03/16 08:19:21;;;;;;;5.38;3.08;;;9.10;99.90;;;;;;5002700;28;20053;-89
2021/03/16 08:21:56;;;;;;;5.43;2.80;;;9.10;99.90;;;;;;5015838;28;20054;-89
2021/03/16 08:24:34;;;;;;;6.00;3.17;;;9.10;99.90;;;;;;5015906;28;20046;-89
2021/03/16 08:27:01;;;;;;;10.40;3.40;;;9.10;99.90;;;;;;5015128;28;20046;-89
2021/03/16 08:29:31;;;;;;;7.60;3.50;;;9.10;99.90;;;;;;5015383;28;20042;-88
2021/03/16 08:31:59;;;;;;;8.50;2.65;;;9.20;99.90;;;;;;4996171;28;20050;-89
2021/03/16 08:34:30;;;;;;;5.00;2.70;;;9.20;99.90;;;;;;4995968;28;20164;-89
2021/03/16 08:36:57;;;;;;;6.28;2.50;;;9.20;99.90;;;;;;4995956;28;20061;-89
2021/03/16 08:39:26;;;;;;;6.25;2.63;;;9.30;99.90;;;;;;4995269;28;20054;-89
2021/03/16 08:41:57;;;;;;;8.40;3.55;;;9.30;99.90;;;;;;4998608;28;20053;-88
2021/03/16 08:44:25;;;;;;;7.90;3.03;;;9.30;99.90;;;;;;5015518;28;20054;-89
2021/03/16 08:46:53;;;;;;;5.70;2.97;;;9.40;99.90;;;;;;5015052;28;20505;-88
2021/03/16 08:49:20;;;;;;;7.03;2.55;;;9.40;99.90;;;;;;5014891;28;20528;-89
2021/03/16 08:51:48;;;;;;;6.50;2.63;;;9.40;99.90;;;;;;5015241;28;20046;-88
2021/03/16 08:54:26;;;;;;;6.32;2.42;;;9.50;99.90;;;;;;5015362;28;20050;-89
2021/03/16 08:56:54;;;;;;;4.88;1.60;;;9.50;99.90;;;;;;5014456;28;20061;-88
2021/03/16 08:59:22;;;;;;;4.47;1.90;;;9.50;99.90;;;;;;5014724;28;20050;-87
2021/03/16 09:01:52;;;;;;;3.55;2.47;;;9.50;99.90;;;;;;5014699;28;20520;-86
2021/03/16 09:04:22;;;;;;;4.97;1.65;;;9.50;99.90;;;;;;5015030;28;20054;-89
2021/03/16 09:06:50;;;;;;;5.65;2.03;;;9.50;99.90;;;;;;5015293;28;20061;-89
2021/03/16 09:09:24;;;;;;;4.40;2.00;;;9.50;99.90;;;;;;5014700;28;20056;-88
2021/03/16 09:11:56;;;;;;;3.20;2.00;;;9.50;99.90;;;;;;5014597;28;20046;-88
2021/03/16 09:14:24;;;;;;;8.63;4.78;;;9.50;99.90;;;;;;5015047;28;20111;-87
2021/03/16 09:16:53;;;;;;;5.88;2.70;;;9.60;99.90;;;;;;5014982;28;20115;-88
2021/03/16 09:19:21;;;;;;;6.45;2.90;;;9.60;99.90;;;;;;5014769;28;20072;-88
2021/03/16 09:21:56;;;;;;;6.35;2.95;;;9.60;99.90;;;;;;5014839;28;20132;-89
2021/03/16 09:24:25;;;;;;;6.13;3.35;;;9.60;99.90;;;;;;5014956;28;20110;-89
2021/03/16 09:26:55;;;;;;;7.22;4.35;;;9.60;99.90;;;;;;5014973;28;20433;-89
2021/03/16 09:29:24;;;;;;;10.65;3.65;;;9.60;99.90;;;;;;4995075;28;20050;-90
2021/03/16 09:31:51;;;;;;;9.38;4.28;;;9.60;99.90;;;;;;4995169;28;20061;-90
2021/03/16 09:34:19;;;;;;;8.00;3.53;;;9.60;99.90;;;;;;4995095;28;20050;-89
2021/03/16 09:36:57;;;;;;;9.68;3.97;;;9.60;99.90;;;;;;4995141;28;20394;-89
2021/03/16 09:39:25;;;;;;;8.25;3.72;;;9.70;99.90;;;;;;4995310;28;20084;-90
2021/03/16 09:41:56;;;;;;;6.40;3.95;;;9.70;99.90;;;;;;4997587;28;20068;-89
2021/03/16 09:44:32;;;;;;;13.07;3.70;;;9.70;99.90;;;;;;5014669;28;20064;-90
2021/03/16 09:46:58;;;;;;;13.13;4.30;;;9.70;99.90;;;;;;5014852;28;20064;-92
2021/03/16 09:49:30;;;;;;;10.90;3.55;;;9.80;99.90;;;;;;5014637;28;20068;-91
2021/03/16 09:52:06;;;;;;;11.98;5.38;;;9.80;99.90;;;;;;5018588;28;20064;-92
2021/03/16 09:54:41;;;;;;;8.35;3.70;;;9.70;99.90;;;;;;5018945;28;20053;-91
2021/03/16 09:57:15;;;;;;;9.18;4.57;;;9.70;99.90;;;;;;5018325;28;20062;-91
2021/03/16 09:59:44;;;;;;;14.93;5.07;;;9.70;99.90;;;;;;5018999;28;20054;-91
2021/03/16 10:02:12;;;;;;;13.48;5.38;;;9.70;99.90;;;;;;5019219;28;20453;-91
2021/03/16 10:04:46;;;;;;;9.15;4.70;;;9.70;99.90;;;;;;5018652;28;20459;-92
2021/03/16 10:07:13;;;;;;;10.20;4.00;;;9.70;99.90;;;;;;5018058;28;20128;-92
2021/03/16 10:09:42;;;;;;;12.50;4.70;;;9.70;99.90;;;;;;5018299;28;20295;-93
2021/03/16 10:12:20;;;;;;;10.55;3.75;;;9.70;99.90;;;;;;5018120;28;20069;-92
2021/03/16 10:14:49;;;;;;;10.93;3.72;;;9.70;99.90;;;;;;5018594;28;20378;-92
2021/03/16 10:17:23;;;;;;;10.02;3.10;;;9.80;99.90;;;;;;5017278;28;20057;-92
2021/03/16 10:19:53;;;;;;;9.65;3.60;;;9.80;99.90;;;;;;5017914;28;20481;-93
2021/03/16 10:22:19;;;;;;;7.63;3.25;;;9.80;99.90;;;;;;5018441;28;20061;-94
2021/03/16 10:24:53;;;;;;;10.27;4.72;;;9.80;99.90;;;;;;5018321;28;20053;-92
2021/03/16 10:27:25;;;;;;;9.73;2.83;;;9.80;99.90;;;;;;5017998;28;20458;-92
2021/03/16 10:29:52;;;;;;;11.02;2.30;;;9.80;99.90;;;;;;5017916;28;20123;-91
2021/03/16 10:32:19;;;;;;;6.72;2.53;;;9.80;99.90;;;;;;5017933;28;20054;-93
2021/03/16 10:34:46;;;;;;;5.95;2.28;;;9.80;99.90;;;;;;5017911;28;20127;-93
2021/03/16 10:37:19;;;;;;;4.97;2.15;;;9.90;99.90;;;;;;5017887;28;20064;-92
2021/03/16 10:39:46;;;;;;;10.13;2.97;;;9.90;99.90;;;;;;5017772;28;20049;-92
2021/03/16 10:42:14;;;;;;;4.70;2.30;;;9.90;99.90;;;;;;5017950;28;20061;-92
2021/03/16 10:44:43;;;;;;;6.40;2.13;;;9.90;99.90;;;;;;5018187;28;20053;-93
2021/03/16 10:47:11;;;;;;;5.07;1.65;;;10.00;99.90;;;;;;5018212;28;20137;-92
2021/03/16 10:49:39;;;;;;;8.95;2.17;;;10.00;99.90;;;;;;5018061;28;20046;-94
2021/03/16 10:52:06;;;;;;;8.00;2.28;;;10.00;99.90;;;;;;5018047;28;20053;-92
2021/03/16 10:54:35;;;;;;;10.65;2.63;;;10.00;99.90;;;;;;5018368;28;20053;-94
2021/03/16 10:57:03;;;;;;;7.55;2.08;;;10.00;99.90;;;;;;5018172;28;20068;-93
2021/03/16 10:59:30;;;;;;;10.38;2.20;;;10.00;99.90;;;;;;5017919;28;20054;-94
2021/03/16 11:01:58;;;;;;;8.63;2.08;;;10.00;99.90;;;;;;5015697;28;20054;-94
2021/03/16 11:04:24;;;;;;;5.32;2.78;;;10.00;99.90;;;;;;5017544;28;20046;-92
2021/03/16 11:06:51;;;;;;;3.13;1.52;;;10.00;99.90;;;;;;5017313;28;20057;-92
2021/03/16 11:09:17;;;;;;;4.60;1.80;;;10.00;99.90;;;;;;5017036;28;20046;-93
2021/03/16 11:11:44;;;;;;;2.78;0.95;;;10.00;99.90;;;;;;5017181;28;20060;-93
2021/03/16 11:14:11;;;;;;;1.15;0.60;;;10.00;99.90;;;;;;5017273;28;20386;-95
2021/03/16 11:16:37;;;;;;;3.20;1.00;;;10.10;99.90;;;;;;5017183;28;20475;-93
2021/03/16 11:19:05;;;;;;;1.35;1.00;;;10.00;99.90;;;;;;5016910;28;20042;-96
2021/03/16 11:21:31;;;;;;;2.75;0.90;;;10.10;99.90;;;;;;5016830;28;20170;-93
2021/03/16 11:23:59;;;;;;;1.90;0.80;;;10.00;99.90;;;;;;5017236;28;20064;-92
2021/03/16 11:26:26;;;;;;;1.23;0.85;;;10.20;99.90;;;;;;5017242;28;20116;-94
2021/03/16 11:28:54;;;;;;;2.58;0.60;;;10.20;99.90;;;;;;5016599;28;20467;-94
2021/03/16 11:31:22;;;;;;;1.58;0.82;;;10.20;99.90;;;;;;5017359;28;20053;-93
2021/03/16 11:33:48;;;;;;;3.80;0.70;;;10.20;99.90;;;;;;5017464;28;20062;-94
2021/03/16 11:36:17;;;;;;;1.77;0.95;;;10.20;99.90;;;;;;5017617;28;20054;-93
2021/03/16 11:38:46;;;;;;;1.23;0.75;;;10.30;99.90;;;;;;5017662;28;20385;-94
2021/03/16 11:41:14;;;;;;;3.20;0.93;;;10.30;99.90;;;;;;5017476;28;20477;-94
2021/03/16 11:43:40;;;;;;;4.75;1.63;;;10.30;99.90;;;;;;5017042;28;20141;-95
2021/03/16 11:46:08;;;;;;;2.00;1.00;;;10.30;99.90;;;;;;5017391;28;20053;-95
2021/03/16 11:48:36;;;;;;;1.98;0.80;;;10.30;99.90;;;;;;5017046;28;20060;-94
2021/03/16 11:51:04;;;;;;;2.65;0.90;;;10.30;99.90;;;;;;5017675;28;20060;-95
2021/03/16 11:53:31;;;;;;;3.95;0.88;;;10.30;99.90;;;;;;5017237;28;20136;-95
2021/03/16 11:55:58;;;;;;;2.65;1.20;;;10.30;99.90;;;;;;5016654;28;20111;-94
2021/03/16 11:58:26;;;;;;;1.60;0.80;;;10.30;99.90;;;;;;5011307;28;20111;-94
2021/03/16 12:00:53;;;;;;;4.25;1.35;;;10.40;99.90;;;;;;4997163;28;20064;-94
2021/03/16 12:03:21;;;;;;;4.47;2.08;;;10.40;99.90;;;;;;4997258;28;20061;-96
2021/03/16 12:05:49;;;;;;;3.13;1.20;;;10.40;99.90;;;;;;4999671;28;20064;-95
2021/03/16 12:08:17;;;;;;;3.13;1.23;;;10.40;99.90;;;;;;5016886;28;20062;-95
2021/03/16 12:10:46;;;;;;;3.38;1.67;;;10.40;99.90;;;;;;5016960;28;20054;-94
2021/03/16 12:13:13;;;;;;;7.00;1.70;;;10.40;99.90;;;;;;5016595;28;20046;-95
2021/03/16 12:15:41;;;;;;;4.20;1.17;;;10.40;99.90;;;;;;5016782;28;20054;-95
2021/03/16 12:18:10;;;;;;;5.32;1.48;;;10.40;99.90;;;;;;5016829;28;20057;-95
2021/03/16 12:20:40;;;;;;;6.72;1.60;;;10.30;99.90;;;;;;5016560;28;20054;-90
2021/03/16 12:23:08;;;;;;;5.93;2.10;;;10.30;99.90;;;;;;5019590;28;20111;-92
2021/03/16 12:25:36;;;;;;;5.50;2.00;;;10.30;99.90;;;;;;5016903;28;20049;-92
2021/03/16 12:28:05;;;;;;;6.57;1.92;;;10.40;99.90;;;;;;5016441;28;20049;-95
2021/03/16 12:30:35;;;;;;;6.57;2.50;;;10.40;99.90;;;;;;5017589;28;20088;-91
2021/03/16 12:33:03;;;;;;;4.55;1.95;;;10.40;99.90;;;;;;5015980;28;20062;-91
2021/03/16 12:35:31;;;;;;;4.07;1.92;;;10.50;99.90;;;;;;5015860;28;20046;-92
2021/03/16 12:37:58;;;;;;;5.65;1.83;;;10.50;99.90;;;;;;5015833;28;20060;-92
2021/03/16 12:40:24;;;;;;;2.97;1.58;;;10.50;99.90;;;;;;5015549;28;20053;-92
2021/03/16 12:42:51;;;;;;;7.45;2.05;;;10.50;99.90;;;;;;5014998;28;20471;-93
2021/03/16 12:45:18;;;;;;;4.78;2.05;;;10.50;99.90;;;;;;5015269;28;20054;-92
2021/03/16 12:47:45;;;;;;;5.50;1.50;;;10.50;99.90;;;;;;5015547;28;20054;-91
2021/03/16 12:50:14;;;;;;;5.20;1.35;;;10.50;99.90;;;;;;5015405;28;20107;-92
2021/03/16 12:52:41;;;;;;;3.35;1.88;;;10.50;99.90;;;;;;5015435;28;20107;-92